sensor_id;sensor_type;location;lat;lon;timestamp;temperature;humidity
67141;DHT22;54058;52.010;5.546;2024-03-06T00:01:35;7.40;99.90
67141;DHT22;54058;52.010;5.546;2024-03-06T00:04:02;7.30;99.90
67141;DHT22;54058;52.010;5.546;2024-03-06T00:06:27;7.40;99.90
67141;DHT22;54058;52.010;5.546;2024-03-06T00:08:53;7.30;99.90
67141;DHT22;54058;52.010;5.546;2024-03-06T00:11:18;7.30;99.90
67141;DHT22;54058;52.010;5.546;2024-03-06T00:13:44;7.20;99.90
67141;DHT22;54058;52.010;5.546;2024-03-06T00:16:10;7.20;99.90
67141;DHT22;54058;52.010;5.546;2024-03-06T00:18:35;7.10;99.90
67141;DHT22;54058;52.010;5.546;2024-03-06T00:21:01;7.10;99.90
67141;DHT22;54058;52.010;5.546;2024-03-06T00:23:27;7.10;99.90
67141;DHT22;54058;52.010;5.546;2024-03-06T00:25:52;7.10;99.90
67141;DHT22;54058;52.010;5.546;2024-03-06T00:28:18;7.00;99.90
67141;DHT22;54058;52.010;5.546;2024-03-06T00:30:44;7.10;99.90
67141;DHT22;54058;52.010;5.546;2024-03-06T00:33:09;7.00;99.90
67141;DHT22;54058;52.010;5.546;2024-03-06T00:35:34;7.00;99.90
67141;DHT22;54058;52.010;5.546;2024-03-06T00:38:00;7.00;99.90
67141;DHT22;54058;52.010;5.546;2024-03-06T00:40:28;7.00;99.90
67141;DHT22;54058;52.010;5.546;2024-03-06T00:42:57;7.00;99.90
67141;DHT22;54058;52.010;5.546;2024-03-06T00:45:23;7.00;99.90
67141;DHT22;54058;52.010;5.546;2024-03-06T00:47:49;7.00;99.90
67141;DHT22;54058;52.010;5.546;2024-03-06T00:50:15;6.90;99.90
67141;DHT22;54058;52.010;5.546;2024-03-06T00:52:42;6.90;99.90
67141;DHT22;54058;52.010;5.546;2024-03-06T00:55:08;6.90;99.90
67141;DHT22;54058;52.010;5.546;2024-03-06T00:57:33;6.90;99.90
67141;DHT22;54058;52.010;5.546;2024-03-06T00:59:59;6.90;99.90
67141;DHT22;54058;52.010;5.546;2024-03-06T01:02:24;6.90;99.90
67141;DHT22;54058;52.010;5.546;2024-03-06T01:04:50;6.80;99.90
67141;DHT22;54058;52.010;5.546;2024-03-06T01:07:16;6.80;99.90
67141;DHT22;54058;52.010;5.546;2024-03-06T01:09:41;6.80;99.90
67141;DHT22;54058;52.010;5.546;2024-03-06T01:12:07;6.80;99.90
67141;DHT22;54058;52.010;5.546;2024-03-06T01:14:33;6.80;99.90
67141;DHT22;54058;52.010;5.546;2024-03-06T01:16:58;6.80;99.90
67141;DHT22;54058;52.010;5.546;2024-03-06T01:19:24;6.80;99.90
67141;DHT22;54058;52.010;5.546;2024-03-06T01:21:49;6.80;99.90
67141;DHT22;54058;52.010;5.546;2024-03-06T01:24:15;6.80;99.90
67141;DHT22;54058;52.010;5.546;2024-03-06T01:26:40;6.80;99.90
67141;DHT22;54058;52.010;5.546;2024-03-06T01:29:06;6.70;99.90
67141;DHT22;54058;52.010;5.546;2024-03-06T01:31:31;6.70;99.90
67141;DHT22;54058;52.010;5.546;2024-03-06T01:33:57;6.70;99.90
67141;DHT22;54058;52.010;5.546;2024-03-06T01:36:22;6.70;99.90
67141;DHT22;54058;52.010;5.546;2024-03-06T01:38:48;6.70;99.90
67141;DHT22;54058;52.010;5.546;2024-03-06T01:41:14;6.60;99.90
67141;DHT22;54058;52.010;5.546;2024-03-06T01:43:39;6.60;99.90
67141;DHT22;54058;52.010;5.546;2024-03-06T01:46:05;6.60;99.90
67141;DHT22;54058;52.010;5.546;2024-03-06T01:48:31;6.60;99.90
67141;DHT22;54058;52.010;5.546;2024-03-06T01:50:57;6.50;99.90
67141;DHT22;54058;52.010;5.546;2024-03-06T01:53:26;6.50;99.90
67141;DHT22;54058;52.010;5.546;2024-03-06T01:55:52;6.50;99.90
67141;DHT22;54058;52.010;5.546;2024-03-06T01:58:17;6.40;99.90
67141;DHT22;54058;52.010;5.546;2024-03-06T02:00:43;6.40;99.90
67141;DHT22;54058;52.010;5.546;2024-03-06T02:03:09;6.40;99.90
67141;DHT22;54058;52.010;5.546;2024-03-06T02:05:35;6.40;99.90
67141;DHT22;54058;52.010;5.546;2024-03-06T02:08:00;6.30;99.90
67141;DHT22;54058;52.010;5.546;2024-03-06T02:10:26;6.30;99.90
67141;DHT22;54058;52.010;5.546;2024-03-06T02:12:53;6.30;99.90
67141;DHT22;54058;52.010;5.546;2024-03-06T02:15:18;6.30;99.90
67141;DHT22;54058;52.010;5.546;2024-03-06T02:17:44;6.30;99.90
67141;DHT22;54058;52.010;5.546;2024-03-06T02:20:11;6.30;99.90
67141;DHT22;54058;52.010;5.546;2024-03-06T02:22:40;6.30;99.90
67141;DHT22;54058;52.010;5.546;2024-03-06T02:25:06;6.20;99.90
67141;DHT22;54058;52.010;5.546;2024-03-06T02:27:32;6.20;99.90
67141;DHT22;54058;52.010;5.546;2024-03-06T02:29:57;6.20;99.90
67141;DHT22;54058;52.010;5.546;2024-03-06T02:32:23;6.20;99.90
67141;DHT22;54058;52.010;5.546;2024-03-06T02:34:49;6.20;99.90
67141;DHT22;54058;52.010;5.546;2024-03-06T02:37:15;6.20;99.90
67141;DHT22;54058;52.010;5.546;2024-03-06T02:39:40;6.20;99.90
67141;DHT22;54058;52.010;5.546;2024-03-06T02:42:06;6.20;99.90
67141;DHT22;54058;52.010;5.546;2024-03-06T02:44:32;6.20;99.90
67141;DHT22;54058;52.010;5.546;2024-03-06T02:46:59;6.00;99.90
67141;DHT22;54058;52.010;5.546;2024-03-06T02:49:24;6.00;99.90
67141;DHT22;54058;52.010;5.546;2024-03-06T02:51:50;6.00;99.90
67141;DHT22;54058;52.010;5.546;2024-03-06T02:54:15;6.00;99.90
67141;DHT22;54058;52.010;5.546;2024-03-06T02:56:41;6.00;99.90
67141;DHT22;54058;52.010;5.546;2024-03-06T02:59:07;6.00;99.90
67141;DHT22;54058;52.010;5.546;2024-03-06T03:01:32;6.00;99.90
67141;DHT22;54058;52.010;5.546;2024-03-06T03:03:59;6.00;99.90
67141;DHT22;54058;52.010;5.546;2024-03-06T03:06:25;6.00;99.90
67141;DHT22;54058;52.010;5.546;2024-03-06T03:08:50;5.90;99.90
67141;DHT22;54058;52.010;5.546;2024-03-06T03:11:16;5.90;99.90
67141;DHT22;54058;52.010;5.546;2024-03-06T03:13:41;5.90;99.90
67141;DHT22;54058;52.010;5.546;2024-03-06T03:16:14;5.90;99.90
67141;DHT22;54058;52.010;5.546;2024-03-06T03:18:40;5.90;99.90
67141;DHT22;54058;52.010;5.546;2024-03-06T03:21:08;5.80;99.90
67141;DHT22;54058;52.010;5.546;2024-03-06T03:23:33;5.80;99.90
67141;DHT22;54058;52.010;5.546;2024-03-06T03:26:00;5.80;99.90
67141;DHT22;54058;52.010;5.546;2024-03-06T03:28:26;5.80;99.90
67141;DHT22;54058;52.010;5.546;2024-03-06T03:30:52;5.80;99.90
67141;DHT22;54058;52.010;5.546;2024-03-06T03:33:17;5.80;99.90
67141;DHT22;54058;52.010;5.546;2024-03-06T03:35:43;5.80;99.90
67141;DHT22;54058;52.010;5.546;2024-03-06T03:38:08;5.80;99.90
67141;DHT22;54058;52.010;5.546;2024-03-06T03:40:34;5.90;99.90
67141;DHT22;54058;52.010;5.546;2024-03-06T03:42:59;5.90;99.90
67141;DHT22;54058;52.010;5.546;2024-03-06T03:45:31;5.90;99.90
67141;DHT22;54058;52.010;5.546;2024-03-06T03:47:56;5.90;99.90
67141;DHT22;54058;52.010;5.546;2024-03-06T03:50:22;5.90;99.90
67141;DHT22;54058;52.010;5.546;2024-03-06T03:52:47;5.90;99.90
67141;DHT22;54058;52.010;5.546;2024-03-06T03:55:13;5.90;99.90
67141;DHT22;54058;52.010;5.546;2024-03-06T03:57:39;5.90;99.90
67141;DHT22;54058;52.010;5.546;2024-03-06T04:00:04;6.00;99.90
67141;DHT22;54058;52.010;5.546;2024-03-06T04:02:36;6.00;99.90
67141;DHT22;54058;52.010;5.546;2024-03-06T04:05:02;5.90;99.90
67141;DHT22;54058;52.010;5.546;2024-03-06T04:07:27;6.00;99.90
67141;DHT22;54058;52.010;5.546;2024-03-06T04:09:53;5.90;99.90
67141;DHT22;54058;52.010;5.546;2024-03-06T04:12:18;5.90;99.90
67141;DHT22;54058;52.010;5.546;2024-03-06T04:14:44;5.90;99.90
67141;DHT22;54058;52.010;5.546;2024-03-06T04:17:10;5.80;99.90
67141;DHT22;54058;52.010;5.546;2024-03-06T04:19:36;5.70;99.90
67141;DHT22;54058;52.010;5.546;2024-03-06T04:22:01;5.50;99.90
67141;DHT22;54058;52.010;5.546;2024-03-06T04:24:27;5.50;99.90
67141;DHT22;54058;52.010;5.546;2024-03-06T04:26:54;5.50;99.90
67141;DHT22;54058;52.010;5.546;2024-03-06T04:29:19;5.50;99.90
67141;DHT22;54058;52.010;5.546;2024-03-06T04:31:45;5.50;99.90
67141;DHT22;54058;52.010;5.546;2024-03-06T04:34:10;5.50;99.90
67141;DHT22;54058;52.010;5.546;2024-03-06T04:36:36;5.50;99.90
67141;DHT22;54058;52.010;5.546;2024-03-06T04:39:01;5.60;99.90
67141;DHT22;54058;52.010;5.546;2024-03-06T04:41:32;5.60;99.90
67141;DHT22;54058;52.010;5.546;2024-03-06T04:43:58;5.50;99.90
67141;DHT22;54058;52.010;5.546;2024-03-06T04:46:26;5.60;99.90
67141;DHT22;54058;52.010;5.546;2024-03-06T04:48:51;5.50;99.90
67141;DHT22;54058;52.010;5.546;2024-03-06T04:51:17;5.60;99.90
67141;DHT22;54058;52.010;5.546;2024-03-06T04:53:45;5.50;99.90
67141;DHT22;54058;52.010;5.546;2024-03-06T04:56:13;5.50;99.90
67141;DHT22;54058;52.010;5.546;2024-03-06T04:58:40;5.40;99.90
67141;DHT22;54058;52.010;5.546;2024-03-06T05:01:05;5.40;99.90
67141;DHT22;54058;52.010;5.546;2024-03-06T05:03:31;5.40;99.90
67141;DHT22;54058;52.010;5.546;2024-03-06T05:05:57;5.40;99.90
67141;DHT22;54058;52.010;5.546;2024-03-06T05:08:23;5.40;99.90
67141;DHT22;54058;52.010;5.546;2024-03-06T05:10:48;5.40;99.90
67141;DHT22;54058;52.010;5.546;2024-03-06T05:13:14;5.40;99.90
67141;DHT22;54058;52.010;5.546;2024-03-06T05:15:39;5.40;99.90
67141;DHT22;54058;52.010;5.546;2024-03-06T05:18:05;5.40;99.90
67141;DHT22;54058;52.010;5.546;2024-03-06T05:20:31;5.20;99.90
67141;DHT22;54058;52.010;5.546;2024-03-06T05:22:56;5.20;99.90
67141;DHT22;54058;52.010;5.546;2024-03-06T05:25:22;5.20;99.90
67141;DHT22;54058;52.010;5.546;2024-03-06T05:27:48;5.20;99.90
67141;DHT22;54058;52.010;5.546;2024-03-06T05:30:13;5.10;99.90
67141;DHT22;54058;52.010;5.546;2024-03-06T05:32:40;4.90;99.90
67141;DHT22;54058;52.010;5.546;2024-03-06T05:35:06;4.70;99.90
67141;DHT22;54058;52.010;5.546;2024-03-06T05:37:35;4.70;99.90
67141;DHT22;54058;52.010;5.546;2024-03-06T05:40:00;4.60;99.90
67141;DHT22;54058;52.010;5.546;2024-03-06T05:42:26;4.40;99.90
67141;DHT22;54058;52.010;5.546;2024-03-06T05:44:51;4.30;99.90
67141;DHT22;54058;52.010;5.546;2024-03-06T05:47:19;4.50;99.90
67141;DHT22;54058;52.010;5.546;2024-03-06T05:49:45;4.50;99.90
67141;DHT22;54058;52.010;5.546;2024-03-06T05:52:11;4.70;99.90
67141;DHT22;54058;52.010;5.546;2024-03-06T05:54:36;4.80;99.90
67141;DHT22;54058;52.010;5.546;2024-03-06T05:57:02;4.90;99.90
67141;DHT22;54058;52.010;5.546;2024-03-06T05:59:28;5.00;99.90
67141;DHT22;54058;52.010;5.546;2024-03-06T06:01:54;4.90;99.90
67141;DHT22;54058;52.010;5.546;2024-03-06T06:04:20;4.90;99.90
67141;DHT22;54058;52.010;5.546;2024-03-06T06:06:45;5.00;99.90
67141;DHT22;54058;52.010;5.546;2024-03-06T06:09:10;5.10;99.90
67141;DHT22;54058;52.010;5.546;2024-03-06T06:11:44;5.20;99.90
67141;DHT22;54058;52.010;5.546;2024-03-06T06:14:10;5.30;99.90
67141;DHT22;54058;52.010;5.546;2024-03-06T06:16:36;5.40;99.90
67141;DHT22;54058;52.010;5.546;2024-03-06T06:19:02;5.40;99.90
67141;DHT22;54058;52.010;5.546;2024-03-06T06:21:27;5.50;99.90
67141;DHT22;54058;52.010;5.546;2024-03-06T06:23:53;5.60;99.90
67141;DHT22;54058;52.010;5.546;2024-03-06T06:26:18;5.70;99.90
67141;DHT22;54058;52.010;5.546;2024-03-06T06:28:45;5.80;99.90
67141;DHT22;54058;52.010;5.546;2024-03-06T06:31:11;5.80;99.90
67141;DHT22;54058;52.010;5.546;2024-03-06T06:33:37;5.80;99.90
67141;DHT22;54058;52.010;5.546;2024-03-06T06:36:02;5.80;99.90
67141;DHT22;54058;52.010;5.546;2024-03-06T06:38:28;5.70;99.90
67141;DHT22;54058;52.010;5.546;2024-03-06T06:40:55;5.80;99.90
67141;DHT22;54058;52.010;5.546;2024-03-06T06:43:20;5.80;99.90
67141;DHT22;54058;52.010;5.546;2024-03-06T06:45:46;5.90;99.90
67141;DHT22;54058;52.010;5.546;2024-03-06T06:48:11;5.90;99.90
67141;DHT22;54058;52.010;5.546;2024-03-06T06:50:37;6.00;99.90
67141;DHT22;54058;52.010;5.546;2024-03-06T06:53:03;6.00;99.90
67141;DHT22;54058;52.010;5.546;2024-03-06T06:55:31;6.10;99.90
67141;DHT22;54058;52.010;5.546;2024-03-06T06:57:56;6.10;99.90
67141;DHT22;54058;52.010;5.546;2024-03-06T07:00:22;6.20;99.90
67141;DHT22;54058;52.010;5.546;2024-03-06T07:02:48;6.30;99.90
67141;DHT22;54058;52.010;5.546;2024-03-06T07:05:14;6.40;99.90
67141;DHT22;54058;52.010;5.546;2024-03-06T07:07:39;6.50;99.90
67141;DHT22;54058;52.010;5.546;2024-03-06T07:10:05;6.50;99.90
67141;DHT22;54058;52.010;5.546;2024-03-06T07:12:31;6.60;99.90
67141;DHT22;54058;52.010;5.546;2024-03-06T07:14:57;6.70;99.90
67141;DHT22;54058;52.010;5.546;2024-03-06T07:17:22;6.70;99.90
67141;DHT22;54058;52.010;5.546;2024-03-06T07:19:48;6.70;99.90
67141;DHT22;54058;52.010;5.546;2024-03-06T07:22:14;6.80;99.90
67141;DHT22;54058;52.010;5.546;2024-03-06T07:24:40;6.90;99.90
67141;DHT22;54058;52.010;5.546;2024-03-06T07:27:06;6.90;99.90
67141;DHT22;54058;52.010;5.546;2024-03-06T07:29:34;6.80;99.90
67141;DHT22;54058;52.010;5.546;2024-03-06T07:32:00;6.80;99.90
67141;DHT22;54058;52.010;5.546;2024-03-06T07:34:26;6.80;99.90
67141;DHT22;54058;52.010;5.546;2024-03-06T07:36:52;6.80;99.90
67141;DHT22;54058;52.010;5.546;2024-03-06T07:39:21;6.80;99.90
67141;DHT22;54058;52.010;5.546;2024-03-06T07:41:46;6.70;99.90
67141;DHT22;54058;52.010;5.546;2024-03-06T07:44:12;6.70;99.90
67141;DHT22;54058;52.010;5.546;2024-03-06T07:46:38;6.70;99.90
67141;DHT22;54058;52.010;5.546;2024-03-06T07:49:03;6.70;99.90
67141;DHT22;54058;52.010;5.546;2024-03-06T07:51:33;6.60;99.90
67141;DHT22;54058;52.010;5.546;2024-03-06T07:53:59;6.60;99.90
67141;DHT22;54058;52.010;5.546;2024-03-06T07:56:25;6.60;99.90
67141;DHT22;54058;52.010;5.546;2024-03-06T07:58:50;6.60;99.90
67141;DHT22;54058;52.010;5.546;2024-03-06T08:01:17;6.50;99.90
67141;DHT22;54058;52.010;5.546;2024-03-06T08:03:43;6.60;99.90
67141;DHT22;54058;52.010;5.546;2024-03-06T08:06:10;6.70;99.90
67141;DHT22;54058;52.010;5.546;2024-03-06T08:08:35;6.80;99.90
67141;DHT22;54058;52.010;5.546;2024-03-06T08:11:01;6.90;99.90
67141;DHT22;54058;52.010;5.546;2024-03-06T08:13:27;6.90;99.90
67141;DHT22;54058;52.010;5.546;2024-03-06T08:15:53;6.80;99.90
67141;DHT22;54058;52.010;5.546;2024-03-06T08:18:18;6.70;99.90
67141;DHT22;54058;52.010;5.546;2024-03-06T08:20:44;6.70;99.90
67141;DHT22;54058;52.010;5.546;2024-03-06T08:23:09;6.70;99.90
67141;DHT22;54058;52.010;5.546;2024-03-06T08:25:35;6.70;99.90
67141;DHT22;54058;52.010;5.546;2024-03-06T08:28:01;6.70;99.90
67141;DHT22;54058;52.010;5.546;2024-03-06T08:30:28;6.70;99.90
67141;DHT22;54058;52.010;5.546;2024-03-06T08:32:55;6.70;99.90
67141;DHT22;54058;52.010;5.546;2024-03-06T08:35:21;6.80;99.90
67141;DHT22;54058;52.010;5.546;2024-03-06T08:37:49;6.90;99.90
67141;DHT22;54058;52.010;5.546;2024-03-06T08:40:15;7.00;99.90
67141;DHT22;54058;52.010;5.546;2024-03-06T08:42:46;6.90;99.90
67141;DHT22;54058;52.010;5.546;2024-03-06T08:45:15;6.80;99.90
67141;DHT22;54058;52.010;5.546;2024-03-06T08:47:41;6.90;99.90
67141;DHT22;54058;52.010;5.546;2024-03-06T08:50:07;7.10;99.90
67141;DHT22;54058;52.010;5.546;2024-03-06T08:52:35;7.10;99.90
67141;DHT22;54058;52.010;5.546;2024-03-06T08:55:01;7.00;99.90
67141;DHT22;54058;52.010;5.546;2024-03-06T08:57:27;7.10;99.90
67141;DHT22;54058;52.010;5.546;2024-03-06T08:59:54;7.20;99.90
67141;DHT22;54058;52.010;5.546;2024-03-06T09:02:19;7.20;99.90
67141;DHT22;54058;52.010;5.546;2024-03-06T09:04:45;7.30;99.90
67141;DHT22;54058;52.010;5.546;2024-03-06T09:07:11;7.50;99.90
67141;DHT22;54058;52.010;5.546;2024-03-06T09:09:37;7.50;99.90
67141;DHT22;54058;52.010;5.546;2024-03-06T09:12:07;7.40;99.90
67141;DHT22;54058;52.010;5.546;2024-03-06T09:14:34;7.50;99.90
67141;DHT22;54058;52.010;5.546;2024-03-06T09:17:00;7.50;99.90
67141;DHT22;54058;52.010;5.546;2024-03-06T09:19:26;7.50;99.90
67141;DHT22;54058;52.010;5.546;2024-03-06T09:21:52;7.50;99.90
67141;DHT22;54058;52.010;5.546;2024-03-06T09:24:17;7.70;99.90
67141;DHT22;54058;52.010;5.546;2024-03-06T09:26:43;7.80;99.90
67141;DHT22;54058;52.010;5.546;2024-03-06T09:29:10;7.90;99.90
67141;DHT22;54058;52.010;5.546;2024-03-06T09:31:36;7.90;99.90
67141;DHT22;54058;52.010;5.546;2024-03-06T09:34:02;8.00;99.90
67141;DHT22;54058;52.010;5.546;2024-03-06T09:36:28;8.00;99.90
67141;DHT22;54058;52.010;5.546;2024-03-06T09:38:53;8.20;99.90
67141;DHT22;54058;52.010;5.546;2024-03-06T09:41:19;8.30;99.90
67141;DHT22;54058;52.010;5.546;2024-03-06T09:43:45;8.30;99.90
67141;DHT22;54058;52.010;5.546;2024-03-06T09:46:10;8.30;99.90
67141;DHT22;54058;52.010;5.546;2024-03-06T09:48:36;8.30;99.90
67141;DHT22;54058;52.010;5.546;2024-03-06T09:51:06;8.40;99.90
67141;DHT22;54058;52.010;5.546;2024-03-06T09:53:32;8.50;99.90
67141;DHT22;54058;52.010;5.546;2024-03-06T09:55:58;8.50;99.90
67141;DHT22;54058;52.010;5.546;2024-03-06T09:58:24;8.70;99.90
67141;DHT22;54058;52.010;5.546;2024-03-06T10:00:50;8.90;99.90
67141;DHT22;54058;52.010;5.546;2024-03-06T10:03:16;9.00;99.90
67141;DHT22;54058;52.010;5.546;2024-03-06T10:05:42;9.20;99.90
67141;DHT22;54058;52.010;5.546;2024-03-06T10:08:08;9.30;99.90
67141;DHT22;54058;52.010;5.546;2024-03-06T10:10:35;9.20;99.90
67141;DHT22;54058;52.010;5.546;2024-03-06T10:13:00;9.10;99.90
67141;DHT22;54058;52.010;5.546;2024-03-06T10:15:26;9.10;99.90
67141;DHT22;54058;52.010;5.546;2024-03-06T10:20:55;9.10;99.90
67141;DHT22;54058;52.010;5.546;2024-03-06T10:23:21;9.20;99.90
67141;DHT22;54058;52.010;5.546;2024-03-06T10:25:47;9.20;99.90
67141;DHT22;54058;52.010;5.546;2024-03-06T10:28:16;9.20;99.90
67141;DHT22;54058;52.010;5.546;2024-03-06T10:30:42;9.20;99.90
67141;DHT22;54058;52.010;5.546;2024-03-06T10:33:08;9.20;99.90
67141;DHT22;54058;52.010;5.546;2024-03-06T10:35:34;9.20;99.90
67141;DHT22;54058;52.010;5.546;2024-03-06T10:38:03;9.20;99.90
67141;DHT22;54058;52.010;5.546;2024-03-06T10:40:33;9.30;99.90
67141;DHT22;54058;52.010;5.546;2024-03-06T10:42:59;9.20;99.90
67141;DHT22;54058;52.010;5.546;2024-03-06T10:45:28;9.30;99.90
67141;DHT22;54058;52.010;5.546;2024-03-06T10:47:55;9.30;99.90
67141;DHT22;54058;52.010;5.546;2024-03-06T10:50:21;9.40;99.90
67141;DHT22;54058;52.010;5.546;2024-03-06T10:52:47;9.40;99.90
67141;DHT22;54058;52.010;5.546;2024-03-06T10:55:14;9.40;99.90
67141;DHT22;54058;52.010;5.546;2024-03-06T10:57:40;9.60;99.90
67141;DHT22;54058;52.010;5.546;2024-03-06T11:00:07;9.60;99.90
67141;DHT22;54058;52.010;5.546;2024-03-06T11:02:33;9.60;99.90
67141;DHT22;54058;52.010;5.546;2024-03-06T11:05:01;9.70;99.90
67141;DHT22;54058;52.010;5.546;2024-03-06T11:07:30;9.80;99.90
67141;DHT22;54058;52.010;5.546;2024-03-06T11:09:58;9.80;99.90
67141;DHT22;54058;52.010;5.546;2024-03-06T11:12:34;9.80;99.90
67141;DHT22;54058;52.010;5.546;2024-03-06T11:15:03;9.90;99.90
67141;DHT22;54058;52.010;5.546;2024-03-06T11:17:33;9.90;99.90
67141;DHT22;54058;52.010;5.546;2024-03-06T11:25:08;10.00;99.90
67141;DHT22;54058;52.010;5.546;2024-03-06T11:28:05;10.20;99.90
67141;DHT22;54058;52.010;5.546;2024-03-06T11:30:31;10.20;99.90
67141;DHT22;54058;52.010;5.546;2024-03-06T11:32:59;10.30;99.90
67141;DHT22;54058;52.010;5.546;2024-03-06T11:35:28;10.40;99.90
67141;DHT22;54058;52.010;5.546;2024-03-06T11:37:54;10.40;99.90
67141;DHT22;54058;52.010;5.546;2024-03-06T11:40:23;10.50;99.90
67141;DHT22;54058;52.010;5.546;2024-03-06T11:42:52;10.70;99.90
67141;DHT22;54058;52.010;5.546;2024-03-06T11:45:18;10.80;99.90
67141;DHT22;54058;52.010;5.546;2024-03-06T11:47:55;10.90;99.90
67141;DHT22;54058;52.010;5.546;2024-03-06T11:50:21;11.20;99.90
67141;DHT22;54058;52.010;5.546;2024-03-06T11:52:47;11.40;99.90
67141;DHT22;54058;52.010;5.546;2024-03-06T11:55:12;11.50;99.90
67141;DHT22;54058;52.010;5.546;2024-03-06T11:57:38;11.40;99.90
67141;DHT22;54058;52.010;5.546;2024-03-06T12:00:04;11.40;99.90
67141;DHT22;54058;52.010;5.546;2024-03-06T12:02:32;11.30;99.90
67141;DHT22;54058;52.010;5.546;2024-03-06T12:05:01;11.10;99.90
67141;DHT22;54058;52.010;5.546;2024-03-06T12:07:27;11.00;99.90
67141;DHT22;54058;52.010;5.546;2024-03-06T12:09:53;11.10;99.90
67141;DHT22;54058;52.010;5.546;2024-03-06T12:12:18;11.10;99.90
67141;DHT22;54058;52.010;5.546;2024-03-06T12:14:55;11.10;99.90
67141;DHT22;54058;52.010;5.546;2024-03-06T12:17:20;11.20;99.90
67141;DHT22;54058;52.010;5.546;2024-03-06T12:19:46;11.20;99.90
67141;DHT22;54058;52.010;5.546;2024-03-06T12:22:13;11.30;99.90
67141;DHT22;54058;52.010;5.546;2024-03-06T12:24:40;11.30;99.90
67141;DHT22;54058;52.010;5.546;2024-03-06T12:27:06;11.30;99.90
67141;DHT22;54058;52.010;5.546;2024-03-06T12:29:32;11.40;99.90
67141;DHT22;54058;52.010;5.546;2024-03-06T12:31:58;11.50;99.90
67141;DHT22;54058;52.010;5.546;2024-03-06T12:34:24;11.50;99.90
67141;DHT22;54058;52.010;5.546;2024-03-06T12:36:49;11.50;99.90
67141;DHT22;54058;52.010;5.546;2024-03-06T12:39:16;11.50;99.90
67141;DHT22;54058;52.010;5.546;2024-03-06T12:41:46;11.60;99.90
67141;DHT22;54058;52.010;5.546;2024-03-06T12:44:12;11.60;99.90
67141;DHT22;54058;52.010;5.546;2024-03-06T12:46:37;11.60;99.90
67141;DHT22;54058;52.010;5.546;2024-03-06T12:49:03;11.60;99.90
67141;DHT22;54058;52.010;5.546;2024-03-06T12:51:28;11.50;99.90
67141;DHT22;54058;52.010;5.546;2024-03-06T12:53:54;11.60;99.90
67141;DHT22;54058;52.010;5.546;2024-03-06T12:56:19;11.70;99.90
67141;DHT22;54058;52.010;5.546;2024-03-06T12:58:45;11.60;99.90
67141;DHT22;54058;52.010;5.546;2024-03-06T13:01:11;11.60;99.90
67141;DHT22;54058;52.010;5.546;2024-03-06T13:03:36;11.70;99.90
67141;DHT22;54058;52.010;5.546;2024-03-06T13:06:02;11.80;99.90
67141;DHT22;54058;52.010;5.546;2024-03-06T13:08:29;11.90;99.90
67141;DHT22;54058;52.010;5.546;2024-03-06T13:10:55;11.80;99.90
67141;DHT22;54058;52.010;5.546;2024-03-06T13:13:21;11.80;99.60
67141;DHT22;54058;52.010;5.546;2024-03-06T13:15:51;11.70;99.90
67141;DHT22;54058;52.010;5.546;2024-03-06T13:18:17;11.70;99.70
67141;DHT22;54058;52.010;5.546;2024-03-06T13:20:43;11.70;99.90
67141;DHT22;54058;52.010;5.546;2024-03-06T13:23:09;11.70;99.80
67141;DHT22;54058;52.010;5.546;2024-03-06T13:25:34;11.70;99.90
67141;DHT22;54058;52.010;5.546;2024-03-06T13:28:00;11.80;99.90
67141;DHT22;54058;52.010;5.546;2024-03-06T13:30:27;11.80;98.90
67141;DHT22;54058;52.010;5.546;2024-03-06T13:32:52;11.80;99.40
67141;DHT22;54058;52.010;5.546;2024-03-06T13:35:19;11.80;98.40
67141;DHT22;54058;52.010;5.546;2024-03-06T13:37:45;11.80;98.70
67141;DHT22;54058;52.010;5.546;2024-03-06T13:40:11;11.80;99.00
67141;DHT22;54058;52.010;5.546;2024-03-06T13:42:38;11.90;99.00
67141;DHT22;54058;52.010;5.546;2024-03-06T13:45:04;11.90;98.60
67141;DHT22;54058;52.010;5.546;2024-03-06T13:47:30;11.90;98.30
67141;DHT22;54058;52.010;5.546;2024-03-06T13:49:55;11.90;97.70
67141;DHT22;54058;52.010;5.546;2024-03-06T13:52:21;12.00;97.80
67141;DHT22;54058;52.010;5.546;2024-03-06T13:54:48;12.10;98.30
67141;DHT22;54058;52.010;5.546;2024-03-06T13:57:14;12.10;96.70
67141;DHT22;54058;52.010;5.546;2024-03-06T13:59:40;12.10;96.80
67141;DHT22;54058;52.010;5.546;2024-03-06T14:02:06;12.10;97.20
67141;DHT22;54058;52.010;5.546;2024-03-06T14:04:32;12.00;96.30
67141;DHT22;54058;52.010;5.546;2024-03-06T14:06:57;12.10;96.80
67141;DHT22;54058;52.010;5.546;2024-03-06T14:09:24;12.10;96.70
67141;DHT22;54058;52.010;5.546;2024-03-06T14:11:50;12.20;96.30
67141;DHT22;54058;52.010;5.546;2024-03-06T14:14:16;12.20;95.90
67141;DHT22;54058;52.010;5.546;2024-03-06T14:16:43;12.30;95.90
67141;DHT22;54058;52.010;5.546;2024-03-06T14:19:08;12.30;95.90
67141;DHT22;54058;52.010;5.546;2024-03-06T14:21:34;12.30;96.00
67141;DHT22;54058;52.010;5.546;2024-03-06T14:24:00;12.40;95.60
67141;DHT22;54058;52.010;5.546;2024-03-06T14:26:32;12.40;94.90
67141;DHT22;54058;52.010;5.546;2024-03-06T14:29:01;12.40;94.50
67141;DHT22;54058;52.010;5.546;2024-03-06T14:31:27;12.50;93.80
67141;DHT22;54058;52.010;5.546;2024-03-06T14:33:53;12.40;93.50
67141;DHT22;54058;52.010;5.546;2024-03-06T14:36:18;12.50;92.60
67141;DHT22;54058;52.010;5.546;2024-03-06T14:38:44;12.40;93.00
67141;DHT22;54058;52.010;5.546;2024-03-06T14:41:10;12.50;93.60
67141;DHT22;54058;52.010;5.546;2024-03-06T14:43:35;12.40;93.00
67141;DHT22;54058;52.010;5.546;2024-03-06T14:46:06;12.40;93.60
67141;DHT22;54058;52.010;5.546;2024-03-06T14:48:33;12.40;92.80
67141;DHT22;54058;52.010;5.546;2024-03-06T14:51:00;12.40;92.60
67141;DHT22;54058;52.010;5.546;2024-03-06T14:53:25;12.50;92.50
67141;DHT22;54058;52.010;5.546;2024-03-06T14:55:51;12.50;92.20
67141;DHT22;54058;52.010;5.546;2024-03-06T14:58:16;12.50;92.60
67141;DHT22;54058;52.010;5.546;2024-03-06T15:00:42;12.50;92.60
67141;DHT22;54058;52.010;5.546;2024-03-06T15:03:07;12.50;92.10
67141;DHT22;54058;52.010;5.546;2024-03-06T15:05:33;12.50;91.70
67141;DHT22;54058;52.010;5.546;2024-03-06T15:07:59;12.50;91.30
67141;DHT22;54058;52.010;5.546;2024-03-06T15:10:25;12.50;90.80
67141;DHT22;54058;52.010;5.546;2024-03-06T15:12:50;12.40;91.50
67141;DHT22;54058;52.010;5.546;2024-03-06T15:15:16;12.50;91.80
67141;DHT22;54058;52.010;5.546;2024-03-06T15:17:42;12.40;90.90
67141;DHT22;54058;52.010;5.546;2024-03-06T15:20:07;12.40;91.10
67141;DHT22;54058;52.010;5.546;2024-03-06T15:22:35;12.50;91.50
67141;DHT22;54058;52.010;5.546;2024-03-06T15:25:07;12.50;91.80
67141;DHT22;54058;52.010;5.546;2024-03-06T15:27:34;12.50;92.20
67141;DHT22;54058;52.010;5.546;2024-03-06T15:29:59;12.50;91.30
67141;DHT22;54058;52.010;5.546;2024-03-06T15:32:25;12.40;90.50
67141;DHT22;54058;52.010;5.546;2024-03-06T15:34:50;12.40;90.10
67141;DHT22;54058;52.010;5.546;2024-03-06T15:37:18;12.40;89.70
67141;DHT22;54058;52.010;5.546;2024-03-06T15:39:43;12.40;90.80
67141;DHT22;54058;52.010;5.546;2024-03-06T15:42:09;12.30;90.20
67141;DHT22;54058;52.010;5.546;2024-03-06T15:44:35;12.30;90.30